createdAt,value
2023-03-08T00:01:51.678Z,3.13
2023-03-08T00:04:18.388Z,3.23
2023-03-08T00:06:45.076Z,3.13
2023-03-08T00:09:11.747Z,3.06
2023-03-08T00:11:38.687Z,2.93
2023-03-08T00:14:05.333Z,2.98
2023-03-08T00:16:31.973Z,2.94
2023-03-08T00:18:58.788Z,2.90
2023-03-08T00:21:25.465Z,2.85
2023-03-08T00:23:53.160Z,2.84
2023-03-08T00:26:19.936Z,2.68
2023-03-08T00:28:46.946Z,2.81
2023-03-08T00:31:14.423Z,2.59
2023-03-08T00:33:41.446Z,1.95
2023-03-08T00:36:14.457Z,2.08
2023-03-08T00:38:41.170Z,2.44
2023-03-08T00:41:07.906Z,2.90
2023-03-08T00:43:34.535Z,2.74
2023-03-08T00:46:01.738Z,2.72
2023-03-08T00:48:28.483Z,3.10
2023-03-08T00:50:55.096Z,2.98
2023-03-08T00:53:24.410Z,3.12
2023-03-08T00:55:57.893Z,2.62
2023-03-08T00:58:26.326Z,1.44
2023-03-08T01:00:53.134Z,0.50
2023-03-08T01:03:21.340Z,0.53
2023-03-08T01:05:51.332Z,0.99
2023-03-08T01:08:18.879Z,1.78
2023-03-08T01:10:50.168Z,2.12
2023-03-08T01:13:18.215Z,2.38
2023-03-08T01:15:44.904Z,2.20
2023-03-08T01:18:11.910Z,1.97
2023-03-08T01:20:38.567Z,1.81
2023-03-08T01:23:05.464Z,2.20
2023-03-08T01:25:32.239Z,2.30
2023-03-08T01:27:58.959Z,2.19
2023-03-08T01:30:25.761Z,2.23
2023-03-08T01:32:53.184Z,2.24
2023-03-08T01:35:19.970Z,2.18
2023-03-08T01:37:46.707Z,2.03
2023-03-08T01:40:16.354Z,1.64
2023-03-08T01:42:42.957Z,1.52
2023-03-08T01:45:47.063Z,1.76
2023-03-08T01:48:16.086Z,1.53
2023-03-08T01:50:45.777Z,1.69
2023-03-08T01:53:13.411Z,1.71
2023-03-08T01:55:43.602Z,2.33
2023-03-08T01:58:10.653Z,2.04
2023-03-08T02:00:39.075Z,2.14
2023-03-08T02:03:11.650Z,1.96
2023-03-08T02:05:42.188Z,1.75
2023-03-08T02:08:09.641Z,0.98
2023-03-08T02:10:37.619Z,0.55
2023-03-08T02:13:07.745Z,0.76
2023-03-08T02:15:34.523Z,1.04
2023-03-08T02:18:01.256Z,1.19
2023-03-08T02:20:38.171Z,1.68
2023-03-08T02:23:16.251Z,1.43
2023-03-08T02:25:52.063Z,1.22
2023-03-08T02:28:20.642Z,1.27
2023-03-08T02:30:48.009Z,1.23
2023-03-08T02:33:14.637Z,1.34
2023-03-08T02:35:41.361Z,1.37
2023-03-08T02:38:09.119Z,1.31
2023-03-08T02:40:37.266Z,1.15
2023-03-08T02:43:05.751Z,0.95
2023-03-08T02:45:33.282Z,1.29
2023-03-08T02:48:01.204Z,1.29
2023-03-08T02:50:28.036Z,1.01
2023-03-08T02:52:54.810Z,1.16
2023-03-08T02:55:21.456Z,1.40
2023-03-08T02:57:48.099Z,1.36
2023-03-08T03:00:15.363Z,1.30
2023-03-08T03:02:42.208Z,1.35
2023-03-08T03:05:10.124Z,1.42
2023-03-08T03:07:39.111Z,1.70
2023-03-08T03:10:06.903Z,1.54
2023-03-08T03:12:33.974Z,1.42
2023-03-08T03:15:08.447Z,1.60
2023-03-08T03:17:35.988Z,1.37
2023-03-08T03:20:06.863Z,1.63
2023-03-08T03:22:33.511Z,1.32
2023-03-08T03:25:03.220Z,1.18
2023-03-08T03:27:29.870Z,0.95
2023-03-08T03:29:56.609Z,1.29
2023-03-08T03:32:23.262Z,1.22
2023-03-08T03:34:50.015Z,1.35
2023-03-08T03:37:16.735Z,1.20
2023-03-08T03:39:43.468Z,1.22
2023-03-08T03:42:10.343Z,1.75
2023-03-08T03:44:37.272Z,1.26
2023-03-08T03:47:04.176Z,1.38
2023-03-08T03:49:31.060Z,1.41
2023-03-08T03:51:57.668Z,1.89
2023-03-08T03:54:24.627Z,1.95
2023-03-08T03:56:51.730Z,1.83
2023-03-08T03:59:18.446Z,1.60
2023-03-08T04:01:45.082Z,1.52
2023-03-08T04:04:13.104Z,1.64
2023-03-08T04:06:39.864Z,1.38
2023-03-08T04:09:10.429Z,1.65
2023-03-08T04:11:40.294Z,1.97
2023-03-08T04:14:07.604Z,1.02
2023-03-08T04:16:36.500Z,0.22
2023-03-08T04:19:12.178Z,0.25
2023-03-08T04:21:39.517Z,0.62
2023-03-08T04:24:06.666Z,0.42
2023-03-08T04:26:33.565Z,0.47
2023-03-08T04:29:00.382Z,0.67
2023-03-08T04:31:29.477Z,1.21
2023-03-08T04:33:56.538Z,1.36
2023-03-08T04:36:23.347Z,1.21
2023-03-08T04:38:51.275Z,1.48
2023-03-08T04:41:18.609Z,1.29
2023-03-08T04:43:54.441Z,1.02
2023-03-08T04:46:24.053Z,0.91
2023-03-08T04:48:51.484Z,0.87
2023-03-08T04:51:18.119Z,0.81
2023-03-08T04:53:45.013Z,0.87
2023-03-08T04:56:13.784Z,0.70
2023-03-08T04:58:41.937Z,0.62
2023-03-08T05:01:20.112Z,0.72
2023-03-08T05:03:46.996Z,1.00
2023-03-08T05:06:14.263Z,0.94
2023-03-08T05:08:41.501Z,1.20
2023-03-08T05:11:08.601Z,0.70
2023-03-08T05:13:37.391Z,1.20
2023-03-08T05:16:06.003Z,0.64
2023-03-08T05:18:33.146Z,0.97
2023-03-08T05:21:03.377Z,0.78
2023-03-08T05:23:30.413Z,0.70
2023-03-08T05:25:59.341Z,0.90
2023-03-08T05:28:28.538Z,0.81
2023-03-08T05:31:24.797Z,0.90
2023-03-08T05:33:52.412Z,0.68
2023-03-08T05:36:19.673Z,0.75
2023-03-08T05:38:46.359Z,0.89
2023-03-08T05:41:15.094Z,0.97
2023-03-08T05:43:42.164Z,0.72
2023-03-08T05:46:12.913Z,0.85
2023-03-08T05:48:40.341Z,1.11
2023-03-08T05:51:15.108Z,0.86
2023-03-08T05:53:42.437Z,1.17
2023-03-08T05:56:09.022Z,0.83
2023-03-08T05:58:36.324Z,0.92
2023-03-08T06:01:32.243Z,1.12
2023-03-08T06:03:58.897Z,1.71
2023-03-08T06:06:27.525Z,1.76
2023-03-08T06:08:54.220Z,1.75
2023-03-08T06:11:20.866Z,1.16
2023-03-08T06:13:47.532Z,1.59
2023-03-08T06:16:14.810Z,1.48
2023-03-08T06:18:43.072Z,1.95
2023-03-08T06:21:18.098Z,1.83
2023-03-08T06:23:45.943Z,2.43
2023-03-08T06:26:13.518Z,2.64
2023-03-08T06:28:40.353Z,2.95
2023-03-08T06:31:09.363Z,2.79
2023-03-08T06:33:36.011Z,3.05
2023-03-08T06:36:21.768Z,2.80
2023-03-08T06:38:49.219Z,2.66
2023-03-08T06:41:17.562Z,2.61
2023-03-08T06:43:44.327Z,2.35
2023-03-08T06:46:13.753Z,2.23
2023-03-08T06:48:40.879Z,2.24
2023-03-08T06:51:07.509Z,2.56
2023-03-08T06:53:35.366Z,3.05
2023-03-08T06:56:02.618Z,2.42
2023-03-08T06:58:29.343Z,2.94
2023-03-08T07:00:56.090Z,3.18
2023-03-08T07:03:22.845Z,2.77
2023-03-08T07:05:49.511Z,3.34
2023-03-08T07:08:16.238Z,3.31
2023-03-08T07:10:42.910Z,3.36
2023-03-08T07:13:09.658Z,3.88
2023-03-08T07:15:40.002Z,3.78
2023-03-08T07:18:06.613Z,3.74
2023-03-08T07:20:33.336Z,3.99
2023-03-08T07:23:00.140Z,3.73
2023-03-08T07:25:26.846Z,3.75
2023-03-08T07:27:53.877Z,3.98
2023-03-08T07:30:20.764Z,3.95
2023-03-08T07:32:47.653Z,4.02
2023-03-08T07:35:16.083Z,4.22
2023-03-08T07:37:47.019Z,4.41
2023-03-08T07:40:17.477Z,4.06
2023-03-08T07:42:45.159Z,3.18
2023-03-08T07:45:12.978Z,3.72
2023-03-08T07:47:40.065Z,4.06
2023-03-08T07:50:08.353Z,4.04
2023-03-08T07:52:35.179Z,4.14
2023-03-08T07:55:01.990Z,4.31
2023-03-08T07:57:28.671Z,4.19
2023-03-08T07:59:55.408Z,4.18
2023-03-08T08:02:22.088Z,4.42
2023-03-08T08:05:01.447Z,4.14
2023-03-08T08:07:28.138Z,4.09
2023-03-08T08:09:54.877Z,4.01
2023-03-08T08:12:21.637Z,3.89
2023-03-08T08:14:48.373Z,3.95
2023-03-08T08:17:15.229Z,3.93
2023-03-08T08:19:41.953Z,4.21
2023-03-08T08:22:08.619Z,4.29
2023-03-08T08:24:36.910Z,4.29
2023-03-08T08:27:03.975Z,4.61
2023-03-08T08:29:30.713Z,4.77
2023-03-08T08:31:57.424Z,4.63
2023-03-08T08:34:24.833Z,4.68
2023-03-08T08:36:51.489Z,4.70
2023-03-08T08:39:18.424Z,4.78
2023-03-08T08:41:45.094Z,4.50
2023-03-08T08:44:11.924Z,4.69
2023-03-08T08:46:41.932Z,5.04
2023-03-08T08:49:08.572Z,5.34
2023-03-08T08:51:35.487Z,5.17
2023-03-08T08:54:02.599Z,5.41
2023-03-08T08:56:29.445Z,5.77
2023-03-08T08:59:03.114Z,5.74
2023-03-08T09:01:32.473Z,5.90
2023-03-08T09:03:59.969Z,5.50
2023-03-08T09:06:28.605Z,5.48
2023-03-08T09:08:58.166Z,5.84
2023-03-08T09:11:26.757Z,5.63
2023-03-08T09:13:53.920Z,5.93
2023-03-08T09:16:32.568Z,6.35
2023-03-08T09:19:04.014Z,5.71
2023-03-08T09:21:31.618Z,5.96
2023-03-08T09:24:04.889Z,5.75
2023-03-08T09:26:33.034Z,5.96
2023-03-08T09:29:01.401Z,6.07
2023-03-08T09:31:28.080Z,6.20
2023-03-08T09:33:54.733Z,6.28
2023-03-08T09:36:21.678Z,6.23
2023-03-08T09:38:49.679Z,6.39
2023-03-08T09:41:19.008Z,6.82
2023-03-08T09:44:09.443Z,6.90
2023-03-08T09:46:40.434Z,7.01
2023-03-08T09:49:15.433Z,6.93
2023-03-08T09:51:47.790Z,6.59
2023-03-08T09:54:20.701Z,6.99
2023-03-08T09:56:51.203Z,7.18
2023-03-08T09:59:27.045Z,6.59
2023-03-08T10:01:56.706Z,6.64
2023-03-08T10:04:34.126Z,6.90
2023-03-08T10:07:06.736Z,6.93
2023-03-08T10:09:38.698Z,7.08
2023-03-08T10:12:17.362Z,7.28
2023-03-08T10:14:52.754Z,7.63
2023-03-08T10:17:28.248Z,7.51
2023-03-08T10:20:24.796Z,7.36
2023-03-08T10:23:15.755Z,7.31
2023-03-08T10:25:42.671Z,6.72
2023-03-08T10:28:20.877Z,7.19
2023-03-08T10:30:51.040Z,7.24
2023-03-08T10:33:19.804Z,7.52
2023-03-08T10:35:52.715Z,7.26
2023-03-08T10:38:19.497Z,7.44
2023-03-08T10:40:47.001Z,7.76
2023-03-08T10:43:39.190Z,7.95
2023-03-08T10:46:12.364Z,8.13
2023-03-08T10:48:39.281Z,7.42
2023-03-08T10:51:16.687Z,7.43
2023-03-08T10:53:56.523Z,7.68
2023-03-08T10:56:37.858Z,8.20
2023-03-08T10:59:13.965Z,8.30
2023-03-08T11:01:52.910Z,8.02
2023-03-08T11:04:24.711Z,8.36
2023-03-08T11:06:51.622Z,8.11
2023-03-08T11:09:30.919Z,8.15
2023-03-08T11:11:59.491Z,8.26
2023-03-08T11:14:28.160Z,8.28
2023-03-08T11:17:06.496Z,8.51
2023-03-08T11:19:54.645Z,8.78
2023-03-08T11:22:33.247Z,8.14
2023-03-08T11:25:09.247Z,8.35
2023-03-08T11:27:42.064Z,8.65
2023-03-08T11:30:30.439Z,8.11
2023-03-08T11:33:22.878Z,8.53
2023-03-08T11:36:11.523Z,7.96
2023-03-08T11:38:39.735Z,8.54
2023-03-08T11:41:27.735Z,8.71
2023-03-08T11:44:06.426Z,8.51
2023-03-08T11:46:51.406Z,8.20
2023-03-08T11:49:18.004Z,8.35
2023-03-08T11:51:53.201Z,8.67
2023-03-08T11:54:58.247Z,8.41
2023-03-08T11:57:27.505Z,8.68
2023-03-08T12:00:02.547Z,8.89
2023-03-08T12:02:37.560Z,9.19
2023-03-08T12:05:29.394Z,8.82
2023-03-08T12:08:15.868Z,8.92
2023-03-08T12:10:48.612Z,8.76
2023-03-08T12:13:25.303Z,8.71
2023-03-08T12:16:08.466Z,8.61
2023-03-08T12:19:01.374Z,8.93
2023-03-08T12:21:34.399Z,9.12
2023-03-08T12:24:42.474Z,9.25
2023-03-08T12:27:20.443Z,8.80
2023-03-08T12:29:57.566Z,8.60
2023-03-08T12:32:26.202Z,8.51
2023-03-08T12:35:20.544Z,8.81
2023-03-08T12:37:59.624Z,8.87
2023-03-08T12:40:37.014Z,8.75
2023-03-08T12:43:13.026Z,8.76
2023-03-08T12:45:42.332Z,8.83
2023-03-08T12:48:21.955Z,8.27
2023-03-08T12:50:54.506Z,8.53
2023-03-08T12:53:47.073Z,9.01
2023-03-08T12:56:19.305Z,8.59
2023-03-08T12:59:14.503Z,8.61
2023-03-08T13:01:46.206Z,8.99
2023-03-08T13:04:40.804Z,9.07
2023-03-08T13:07:39.936Z,9.19
2023-03-08T13:10:23.145Z,9.26
2023-03-08T13:13:39.165Z,9.54
2023-03-08T13:16:15.097Z,10.04
2023-03-08T13:18:47.413Z,10.26
2023-03-08T13:21:27.146Z,9.63
2023-03-08T13:24:13.654Z,9.61
2023-03-08T13:27:01.210Z,10.06
2023-03-08T13:29:31.019Z,10.43
2023-03-08T13:31:58.786Z,10.57
2023-03-08T13:34:31.087Z,10.48
2023-03-08T13:36:58.213Z,10.32
2023-03-08T13:39:32.425Z,10.05
2023-03-08T13:42:25.853Z,10.29
2023-03-08T13:45:09.878Z,10.33
2023-03-08T13:47:38.722Z,10.13
2023-03-08T13:50:06.678Z,10.17
2023-03-08T13:52:36.747Z,10.11
2023-03-08T13:55:07.076Z,10.10
2023-03-08T13:57:37.111Z,9.94
2023-03-08T14:00:36.405Z,10.13
2023-03-08T14:03:05.254Z,9.63
2023-03-08T14:05:39.868Z,9.93
2023-03-08T14:08:16.811Z,9.80
2023-03-08T14:11:00.213Z,9.87
2023-03-08T14:13:33.883Z,9.84
2023-03-08T14:16:05.157Z,9.77
2023-03-08T14:18:38.104Z,9.59
2023-03-08T14:21:13.987Z,9.89
2023-03-08T14:23:43.351Z,9.89
2023-03-08T14:26:36.231Z,9.88
2023-03-08T14:29:12.397Z,9.81
2023-03-08T14:31:40.385Z,9.96
2023-03-08T14:34:24.838Z,10.12
2023-03-08T14:37:04.997Z,9.93
2023-03-08T14:39:33.618Z,10.05
2023-03-08T14:42:29.544Z,10.15
2023-03-08T14:45:05.627Z,10.13
2023-03-08T14:47:34.719Z,10.10
2023-03-08T14:50:06.996Z,10.11
2023-03-08T14:52:36.673Z,10.16
2023-03-08T14:55:16.405Z,9.96
2023-03-08T14:57:43.160Z,9.95
2023-03-08T15:00:14.241Z,9.97
2023-03-08T15:02:41.528Z,9.92
2023-03-08T15:05:22.516Z,10.23
2023-03-08T15:07:55.209Z,9.55
2023-03-08T15:10:34.058Z,9.73
2023-03-08T15:13:01.033Z,9.92
2023-03-08T15:15:27.656Z,9.99
2023-03-08T15:17:54.323Z,10.18
2023-03-08T15:20:21.027Z,10.04
2023-03-08T15:23:00.196Z,10.11
2023-03-08T15:25:29.238Z,10.14
2023-03-08T15:27:56.094Z,10.07
2023-03-08T15:30:26.417Z,10.05
2023-03-08T15:32:53.268Z,10.00
2023-03-08T15:35:19.854Z,9.88
2023-03-08T15:37:47.019Z,9.74
2023-03-08T15:40:15.453Z,10.07
2023-03-08T15:42:42.450Z,10.07
2023-03-08T15:45:10.805Z,10.03
2023-03-08T15:47:41.652Z,10.10
2023-03-08T15:50:17.509Z,10.16
2023-03-08T15:52:44.676Z,10.19
2023-03-08T15:55:13.323Z,10.28
2023-03-08T15:57:41.035Z,10.44
2023-03-08T16:00:09.815Z,9.79
2023-03-08T16:02:36.420Z,10.12
2023-03-08T16:05:04.387Z,10.05
2023-03-08T16:07:31.890Z,10.00
2023-03-08T16:09:58.813Z,10.08
2023-03-08T16:12:25.816Z,10.15
2023-03-08T16:14:52.493Z,10.08
2023-03-08T16:17:19.173Z,10.32
2023-03-08T16:19:45.850Z,10.35
2023-03-08T16:22:12.597Z,10.52
2023-03-08T16:24:39.246Z,10.46
2023-03-08T16:27:06.077Z,10.47
2023-03-08T16:29:33.782Z,9.86
2023-03-08T16:32:00.660Z,10.08
2023-03-08T16:34:29.363Z,10.26
2023-03-08T16:36:56.967Z,9.93
2023-03-08T16:39:25.127Z,10.25
2023-03-08T16:41:52.080Z,10.12
2023-03-08T16:44:23.040Z,10.14
2023-03-08T16:46:50.240Z,10.13
2023-03-08T16:49:18.847Z,9.99
2023-03-08T16:51:45.614Z,9.97
2023-03-08T16:54:13.524Z,9.83
2023-03-08T16:56:41.957Z,10.07
2023-03-08T16:59:13.422Z,9.86
2023-03-08T17:01:40.724Z,9.68
2023-03-08T17:04:07.361Z,9.48
2023-03-08T17:06:34.316Z,9.89
2023-03-08T17:09:01.639Z,10.02
2023-03-08T17:11:31.455Z,9.70
2023-03-08T17:14:03.114Z,9.30
2023-03-08T17:16:31.586Z,9.74
2023-03-08T17:19:00.377Z,9.95
2023-03-08T17:21:28.734Z,9.82
2023-03-08T17:23:55.639Z,9.55
2023-03-08T17:26:23.444Z,9.66
2023-03-08T17:28:54.330Z,9.30
2023-03-08T17:31:22.792Z,9.41
2023-03-08T17:33:50.352Z,9.26
2023-03-08T17:36:17.211Z,9.34
2023-03-08T17:38:44.206Z,9.56
2023-03-08T17:41:13.490Z,9.60
2023-03-08T17:43:41.448Z,9.48
2023-03-08T17:46:12.631Z,9.65
2023-03-08T17:48:39.460Z,9.52
2023-03-08T17:51:15.281Z,9.73
2023-03-08T17:53:43.387Z,9.54
2023-03-08T17:56:13.232Z,9.45
2023-03-08T17:58:40.555Z,9.58
2023-03-08T18:01:16.217Z,9.59
2023-03-08T18:03:43.584Z,9.37
2023-03-08T18:06:19.217Z,9.56
2023-03-08T18:08:46.164Z,9.60
2023-03-08T18:11:12.914Z,9.40
2023-03-08T18:13:40.824Z,9.38
2023-03-08T18:16:08.291Z,9.29
2023-03-08T18:18:34.972Z,9.48
2023-03-08T18:21:12.638Z,9.20
2023-03-08T18:23:40.362Z,9.48
2023-03-08T18:26:06.993Z,9.50
2023-03-08T18:28:33.582Z,9.27
2023-03-08T18:31:00.238Z,9.48
2023-03-08T18:33:26.943Z,9.49
2023-03-08T18:35:58.924Z,9.51
2023-03-08T18:38:25.695Z,9.18
2023-03-08T18:40:52.309Z,9.11
2023-03-08T18:43:19.075Z,9.27
2023-03-08T18:45:56.440Z,8.99
2023-03-08T18:48:24.295Z,9.21
2023-03-08T18:50:51.064Z,8.95
2023-03-08T18:53:17.894Z,9.11
2023-03-08T18:55:55.520Z,9.18
2023-03-08T18:58:22.330Z,9.26
2023-03-08T19:00:49.039Z,8.78
2023-03-08T19:03:15.814Z,8.86
2023-03-08T19:05:42.990Z,8.79
2023-03-08T19:08:09.722Z,8.93
2023-03-08T19:10:36.665Z,9.06
2023-03-08T19:13:05.968Z,8.80
2023-03-08T19:15:36.195Z,9.02
2023-03-08T19:18:03.049Z,9.03
2023-03-08T19:20:29.803Z,8.86
2023-03-08T19:22:56.750Z,8.65
2023-03-08T19:25:23.595Z,8.74
2023-03-08T19:27:50.257Z,8.75
2023-03-08T19:30:17.400Z,8.92
2023-03-08T19:32:44.429Z,9.00
2023-03-08T19:35:11.298Z,8.92
2023-03-08T19:37:38.072Z,8.96
2023-03-08T19:40:05.380Z,8.89
2023-03-08T19:42:32.019Z,8.89
2023-03-08T19:45:00.950Z,8.83
2023-03-08T19:47:27.746Z,8.74
2023-03-08T19:49:54.370Z,8.67
2023-03-08T19:52:21.085Z,8.26
2023-03-08T19:54:47.731Z,8.12
2023-03-08T19:57:14.430Z,8.39
2023-03-08T19:59:41.037Z,8.53
2023-03-08T20:02:08.878Z,8.52
2023-03-08T20:04:35.674Z,8.51
2023-03-08T20:07:02.715Z,8.90
2023-03-08T20:09:29.470Z,8.68
2023-03-08T20:11:58.840Z,8.50
2023-03-08T20:14:27.490Z,8.84
2023-03-08T20:16:55.091Z,9.01
2023-03-08T20:19:22.047Z,8.94
2023-03-08T20:21:49.098Z,8.63
2023-03-08T20:24:15.754Z,8.34
2023-03-08T20:26:42.433Z,8.23
2023-03-08T20:29:12.182Z,8.19
2023-03-08T20:31:38.847Z,8.32
2023-03-08T20:34:05.517Z,8.16
2023-03-08T20:36:33.503Z,8.08
2023-03-08T20:39:00.714Z,8.30
2023-03-08T20:41:28.512Z,8.03
2023-03-08T20:43:55.220Z,8.26
2023-03-08T20:46:25.547Z,8.28
2023-03-08T20:48:52.266Z,8.36
2023-03-08T20:51:20.654Z,8.14
2023-03-08T20:53:51.878Z,7.90
2023-03-08T20:56:21.176Z,8.05
2023-03-08T20:58:48.146Z,8.52
2023-03-08T21:01:17.791Z,8.20
2023-03-08T21:03:45.869Z,8.39
2023-03-08T21:06:25.305Z,8.18
2023-03-08T21:08:52.363Z,8.61
2023-03-08T21:11:20.084Z,8.26
2023-03-08T21:13:51.618Z,8.46
2023-03-08T21:16:20.266Z,8.56
2023-03-08T21:18:51.896Z,8.56
2023-03-08T21:21:25.774Z,8.49
2023-03-08T21:23:52.823Z,8.70
2023-03-08T21:26:19.526Z,8.37
2023-03-08T21:28:46.632Z,8.59
2023-03-08T21:31:13.384Z,8.43
2023-03-08T21:33:40.022Z,8.33
2023-03-08T21:36:07.169Z,8.51
2023-03-08T21:38:33.912Z,8.32
2023-03-08T21:41:00.544Z,8.51
2023-03-08T21:43:27.175Z,8.76
2023-03-08T21:45:53.947Z,8.29
2023-03-08T21:48:20.789Z,8.67
2023-03-08T21:50:47.626Z,8.37
2023-03-08T21:53:14.255Z,8.21
2023-03-08T21:55:41.855Z,8.51
2023-03-08T21:58:09.425Z,8.23
2023-03-08T22:00:36.235Z,8.18
2023-03-08T22:03:04.711Z,8.37
2023-03-08T22:05:31.729Z,8.39
2023-03-08T22:07:58.660Z,8.70
2023-03-08T22:10:25.313Z,8.29
2023-03-08T22:12:52.043Z,8.35
2023-03-08T22:15:19.069Z,8.53
2023-03-08T22:17:45.934Z,8.65
2023-03-08T22:20:12.880Z,8.72
2023-03-08T22:22:40.278Z,8.62
2023-03-08T22:25:08.563Z,8.58
2023-03-08T22:27:35.406Z,8.42
2023-03-08T22:30:03.029Z,8.28
2023-03-08T22:32:29.715Z,8.61
2023-03-08T22:34:56.769Z,8.32
2023-03-08T22:37:23.468Z,8.41
2023-03-08T22:39:50.209Z,8.41
2023-03-08T22:42:16.965Z,8.17
2023-03-08T22:44:43.804Z,8.60
2023-03-08T22:47:10.484Z,8.70
2023-03-08T22:49:37.197Z,8.50
2023-03-08T22:52:03.982Z,8.22
2023-03-08T22:54:30.935Z,8.29
2023-03-08T22:56:57.578Z,8.19
2023-03-08T22:59:24.339Z,7.99
2023-03-08T23:01:51.431Z,8.05
2023-03-08T23:04:18.201Z,7.95
2023-03-08T23:06:44.826Z,8.26
2023-03-08T23:09:11.614Z,8.36
2023-03-08T23:11:39.556Z,8.33
2023-03-08T23:14:07.134Z,8.25
2023-03-08T23:16:35.068Z,8.17
2023-03-08T23:19:02.247Z,8.04
2023-03-08T23:21:30.432Z,8.02
2023-03-08T23:23:57.846Z,7.80
2023-03-08T23:26:25.765Z,8.00
2023-03-08T23:28:55.825Z,7.77
2023-03-08T23:31:25.112Z,8.05
2023-03-08T23:33:52.524Z,7.96
2023-03-08T23:36:22.168Z,7.91
2023-03-08T23:38:49.565Z,8.16
2023-03-08T23:41:17.712Z,7.92
2023-03-08T23:43:44.762Z,7.61
2023-03-08T23:46:19.318Z,7.76
2023-03-08T23:48:47.312Z,7.76
2023-03-08T23:51:16.813Z,7.69
2023-03-08T23:53:44.107Z,7.87
2023-03-08T23:56:28.688Z,7.80
2023-03-08T23:59:00.889Z,7.90
